sensor_id;sensor_type;location;lat;lon;timestamp;temperature;humidity
6206;DHT22;3136;48.788;9.772;2024-02-28T00:02:09;7.00;99.90
6206;DHT22;3136;48.788;9.772;2024-02-28T00:04:35;7.00;99.90
6206;DHT22;3136;48.788;9.772;2024-02-28T00:07:00;7.00;99.90
6206;DHT22;3136;48.788;9.772;2024-02-28T00:09:26;7.00;99.90
6206;DHT22;3136;48.788;9.772;2024-02-28T00:11:52;7.00;99.90
6206;DHT22;3136;48.788;9.772;2024-02-28T00:14:17;7.20;99.90
6206;DHT22;3136;48.788;9.772;2024-02-28T00:16:44;6.90;99.90
6206;DHT22;3136;48.788;9.772;2024-02-28T00:19:10;6.90;99.90
6206;DHT22;3136;48.788;9.772;2024-02-28T00:21:42;6.90;99.90
6206;DHT22;3136;48.788;9.772;2024-02-28T00:24:08;6.80;99.90
6206;DHT22;3136;48.788;9.772;2024-02-28T00:26:34;6.70;99.90
6206;DHT22;3136;48.788;9.772;2024-02-28T00:28:59;6.60;99.90
6206;DHT22;3136;48.788;9.772;2024-02-28T00:31:25;6.40;1.00
6206;DHT22;3136;48.788;9.772;2024-02-28T00:33:50;6.30;1.00
6206;DHT22;3136;48.788;9.772;2024-02-28T00:36:16;6.10;99.90
6206;DHT22;3136;48.788;9.772;2024-02-28T00:38:42;6.00;1.00
6206;DHT22;3136;48.788;9.772;2024-02-28T00:41:08;5.90;99.90
6206;DHT22;3136;48.788;9.772;2024-02-28T00:43:34;5.90;1.00
6206;DHT22;3136;48.788;9.772;2024-02-28T00:46:00;5.80;99.90
6206;DHT22;3136;48.788;9.772;2024-02-28T00:48:26;5.70;99.90
6206;DHT22;3136;48.788;9.772;2024-02-28T00:50:52;5.60;99.90
6206;DHT22;3136;48.788;9.772;2024-02-28T00:53:18;5.50;1.00
6206;DHT22;3136;48.788;9.772;2024-02-28T00:55:43;5.40;1.00
6206;DHT22;3136;48.788;9.772;2024-02-28T00:58:10;5.30;99.90
6206;DHT22;3136;48.788;9.772;2024-02-28T01:00:35;5.20;1.00
6206;DHT22;3136;48.788;9.772;2024-02-28T01:03:01;5.10;1.00
6206;DHT22;3136;48.788;9.772;2024-02-28T01:05:30;4.90;99.90
6206;DHT22;3136;48.788;9.772;2024-02-28T01:07:56;4.90;1.00
6206;DHT22;3136;48.788;9.772;2024-02-28T01:10:22;4.80;99.90
6206;DHT22;3136;48.788;9.772;2024-02-28T01:12:48;4.80;1.00
6206;DHT22;3136;48.788;9.772;2024-02-28T01:15:13;4.70;97.70
6206;DHT22;3136;48.788;9.772;2024-02-28T01:17:39;4.70;99.90
6206;DHT22;3136;48.788;9.772;2024-02-28T01:20:05;4.60;1.00
6206;DHT22;3136;48.788;9.772;2024-02-28T01:22:32;4.50;1.00
6206;DHT22;3136;48.788;9.772;2024-02-28T01:24:58;4.40;35.90
6206;DHT22;3136;48.788;9.772;2024-02-28T01:27:24;4.40;99.90
6206;DHT22;3136;48.788;9.772;2024-02-28T01:29:49;4.30;1.00
6206;DHT22;3136;48.788;9.772;2024-02-28T01:32:15;4.20;29.00
6206;DHT22;3136;48.788;9.772;2024-02-28T01:34:40;4.20;1.00
6206;DHT22;3136;48.788;9.772;2024-02-28T01:37:06;4.20;1.00
6206;DHT22;3136;48.788;9.772;2024-02-28T01:39:32;4.20;90.00
6206;DHT22;3136;48.788;9.772;2024-02-28T01:41:57;4.30;99.90
6206;DHT22;3136;48.788;9.772;2024-02-28T01:44:23;4.30;99.90
6206;DHT22;3136;48.788;9.772;2024-02-28T01:46:48;4.40;99.90
6206;DHT22;3136;48.788;9.772;2024-02-28T01:49:15;4.40;1.00
6206;DHT22;3136;48.788;9.772;2024-02-28T01:51:41;4.50;1.00
6206;DHT22;3136;48.788;9.772;2024-02-28T01:54:08;4.50;1.00
6206;DHT22;3136;48.788;9.772;2024-02-28T01:56:34;4.50;1.00
6206;DHT22;3136;48.788;9.772;2024-02-28T01:59:00;4.60;1.00
6206;DHT22;3136;48.788;9.772;2024-02-28T02:01:27;4.70;1.00
6206;DHT22;3136;48.788;9.772;2024-02-28T02:03:54;4.70;1.00
6206;DHT22;3136;48.788;9.772;2024-02-28T02:06:19;4.70;1.00
6206;DHT22;3136;48.788;9.772;2024-02-28T02:08:46;4.80;1.00
6206;DHT22;3136;48.788;9.772;2024-02-28T02:11:14;4.80;1.00
6206;DHT22;3136;48.788;9.772;2024-02-28T02:13:50;4.90;1.00
6206;DHT22;3136;48.788;9.772;2024-02-28T02:16:17;4.90;1.00
6206;DHT22;3136;48.788;9.772;2024-02-28T02:18:43;4.90;1.00
6206;DHT22;3136;48.788;9.772;2024-02-28T02:21:09;5.00;1.00
6206;DHT22;3136;48.788;9.772;2024-02-28T02:23:36;5.00;1.00
6206;DHT22;3136;48.788;9.772;2024-02-28T02:26:06;5.10;1.00
6206;DHT22;3136;48.788;9.772;2024-02-28T02:28:32;5.00;99.90
6206;DHT22;3136;48.788;9.772;2024-02-28T02:30:58;5.10;99.90
6206;DHT22;3136;48.788;9.772;2024-02-28T02:33:23;5.10;99.90
6206;DHT22;3136;48.788;9.772;2024-02-28T02:35:49;5.10;99.90
6206;DHT22;3136;48.788;9.772;2024-02-28T02:38:15;5.10;99.90
6206;DHT22;3136;48.788;9.772;2024-02-28T02:40:40;5.10;99.90
6206;DHT22;3136;48.788;9.772;2024-02-28T02:43:06;5.20;99.90
6206;DHT22;3136;48.788;9.772;2024-02-28T02:45:31;5.20;99.90
6206;DHT22;3136;48.788;9.772;2024-02-28T02:47:57;5.20;99.90
6206;DHT22;3136;48.788;9.772;2024-02-28T02:50:22;5.20;94.40
6206;DHT22;3136;48.788;9.772;2024-02-28T02:52:48;5.20;1.00
6206;DHT22;3136;48.788;9.772;2024-02-28T02:55:13;5.20;1.00
6206;DHT22;3136;48.788;9.772;2024-02-28T02:57:40;5.30;1.00
6206;DHT22;3136;48.788;9.772;2024-02-28T03:00:08;5.20;1.00
6206;DHT22;3136;48.788;9.772;2024-02-28T03:02:34;5.30;1.00
6206;DHT22;3136;48.788;9.772;2024-02-28T03:05:00;5.30;1.00
6206;DHT22;3136;48.788;9.772;2024-02-28T03:07:25;5.30;1.00
6206;DHT22;3136;48.788;9.772;2024-02-28T03:09:51;5.40;1.00
6206;DHT22;3136;48.788;9.772;2024-02-28T03:12:17;5.50;1.00
6206;DHT22;3136;48.788;9.772;2024-02-28T03:14:42;5.30;1.00
6206;DHT22;3136;48.788;9.772;2024-02-28T03:17:08;5.40;1.00
6206;DHT22;3136;48.788;9.772;2024-02-28T03:19:33;5.30;1.00
6206;DHT22;3136;48.788;9.772;2024-02-28T03:22:01;5.30;1.00
6206;DHT22;3136;48.788;9.772;2024-02-28T03:24:26;5.40;99.90
6206;DHT22;3136;48.788;9.772;2024-02-28T03:26:52;5.40;99.90
6206;DHT22;3136;48.788;9.772;2024-02-28T03:29:17;5.40;99.90
6206;DHT22;3136;48.788;9.772;2024-02-28T03:31:43;5.40;99.90
6206;DHT22;3136;48.788;9.772;2024-02-28T03:34:08;5.40;99.90
6206;DHT22;3136;48.788;9.772;2024-02-28T03:36:35;5.40;99.90
6206;DHT22;3136;48.788;9.772;2024-02-28T03:39:00;5.40;99.90
6206;DHT22;3136;48.788;9.772;2024-02-28T03:41:26;5.40;99.90
6206;DHT22;3136;48.788;9.772;2024-02-28T03:43:51;5.40;99.90
6206;DHT22;3136;48.788;9.772;2024-02-28T03:46:17;5.40;99.90
6206;DHT22;3136;48.788;9.772;2024-02-28T03:48:43;5.40;99.90
6206;DHT22;3136;48.788;9.772;2024-02-28T03:51:08;5.40;85.30
6206;DHT22;3136;48.788;9.772;2024-02-28T03:53:34;5.40;99.90
6206;DHT22;3136;48.788;9.772;2024-02-28T03:55:59;4.50;99.90
6206;DHT22;3136;48.788;9.772;2024-02-28T03:58:25;5.40;99.90
6206;DHT22;3136;48.788;9.772;2024-02-28T04:00:50;5.40;99.90
6206;DHT22;3136;48.788;9.772;2024-02-28T04:03:16;5.40;99.90
6206;DHT22;3136;48.788;9.772;2024-02-28T04:05:42;5.40;99.90
6206;DHT22;3136;48.788;9.772;2024-02-28T04:08:07;5.40;99.90
6206;DHT22;3136;48.788;9.772;2024-02-28T04:10:33;5.50;99.90
6206;DHT22;3136;48.788;9.772;2024-02-28T04:12:59;5.50;99.90
6206;DHT22;3136;48.788;9.772;2024-02-28T04:15:24;5.50;99.90
6206;DHT22;3136;48.788;9.772;2024-02-28T04:17:51;5.50;99.90
6206;DHT22;3136;48.788;9.772;2024-02-28T04:20:17;5.50;99.90
6206;DHT22;3136;48.788;9.772;2024-02-28T04:22:42;5.50;99.90
6206;DHT22;3136;48.788;9.772;2024-02-28T04:25:09;5.50;99.90
6206;DHT22;3136;48.788;9.772;2024-02-28T04:27:36;5.50;99.90
6206;DHT22;3136;48.788;9.772;2024-02-28T04:30:01;5.50;99.90
6206;DHT22;3136;48.788;9.772;2024-02-28T04:32:27;5.60;99.90
6206;DHT22;3136;48.788;9.772;2024-02-28T04:34:53;5.50;99.90
6206;DHT22;3136;48.788;9.772;2024-02-28T04:37:18;5.50;99.90
6206;DHT22;3136;48.788;9.772;2024-02-28T04:39:44;5.50;99.90
6206;DHT22;3136;48.788;9.772;2024-02-28T04:42:09;5.60;99.90
6206;DHT22;3136;48.788;9.772;2024-02-28T04:44:35;5.60;99.90
6206;DHT22;3136;48.788;9.772;2024-02-28T04:47:01;5.50;99.90
6206;DHT22;3136;48.788;9.772;2024-02-28T04:49:27;5.50;99.90
6206;DHT22;3136;48.788;9.772;2024-02-28T04:51:52;5.60;99.90
6206;DHT22;3136;48.788;9.772;2024-02-28T04:54:18;5.50;99.90
6206;DHT22;3136;48.788;9.772;2024-02-28T04:56:44;5.60;99.90
6206;DHT22;3136;48.788;9.772;2024-02-28T04:59:11;5.60;99.90
6206;DHT22;3136;48.788;9.772;2024-02-28T05:01:40;5.60;99.90
6206;DHT22;3136;48.788;9.772;2024-02-28T05:04:08;5.60;99.90
6206;DHT22;3136;48.788;9.772;2024-02-28T05:06:34;5.60;99.90
6206;DHT22;3136;48.788;9.772;2024-02-28T05:09:00;5.60;99.90
6206;DHT22;3136;48.788;9.772;2024-02-28T05:11:25;5.70;99.90
6206;DHT22;3136;48.788;9.772;2024-02-28T05:13:51;5.70;27.40
6206;DHT22;3136;48.788;9.772;2024-02-28T05:16:16;5.70;1.00
6206;DHT22;3136;48.788;9.772;2024-02-28T05:18:44;5.70;1.00
6206;DHT22;3136;48.788;9.772;2024-02-28T05:21:10;5.80;1.00
6206;DHT22;3136;48.788;9.772;2024-02-28T05:23:35;5.80;99.90
6206;DHT22;3136;48.788;9.772;2024-02-28T05:26:02;5.80;1.00
6206;DHT22;3136;48.788;9.772;2024-02-28T05:28:33;5.80;1.00
6206;DHT22;3136;48.788;9.772;2024-02-28T05:31:01;5.80;99.90
6206;DHT22;3136;48.788;9.772;2024-02-28T05:33:28;5.80;1.00
6206;DHT22;3136;48.788;9.772;2024-02-28T05:35:54;5.80;1.00
6206;DHT22;3136;48.788;9.772;2024-02-28T05:38:19;5.80;1.00
6206;DHT22;3136;48.788;9.772;2024-02-28T05:40:45;5.90;99.90
6206;DHT22;3136;48.788;9.772;2024-02-28T05:43:10;5.90;22.30
6206;DHT22;3136;48.788;9.772;2024-02-28T05:45:36;5.90;1.00
6206;DHT22;3136;48.788;9.772;2024-02-28T05:48:01;5.90;1.00
6206;DHT22;3136;48.788;9.772;2024-02-28T05:50:27;5.90;1.00
6206;DHT22;3136;48.788;9.772;2024-02-28T05:52:52;5.90;1.00
6206;DHT22;3136;48.788;9.772;2024-02-28T05:55:18;5.90;1.00
6206;DHT22;3136;48.788;9.772;2024-02-28T05:57:43;5.90;1.00
6206;DHT22;3136;48.788;9.772;2024-02-28T06:00:09;5.90;1.00
6206;DHT22;3136;48.788;9.772;2024-02-28T06:02:38;5.90;1.00
6206;DHT22;3136;48.788;9.772;2024-02-28T06:05:04;5.90;99.90
6206;DHT22;3136;48.788;9.772;2024-02-28T06:07:30;5.90;99.90
6206;DHT22;3136;48.788;9.772;2024-02-28T06:09:56;5.90;99.90
6206;DHT22;3136;48.788;9.772;2024-02-28T06:12:21;5.90;99.90
6206;DHT22;3136;48.788;9.772;2024-02-28T06:14:47;5.90;1.00
6206;DHT22;3136;48.788;9.772;2024-02-28T06:17:13;5.90;1.00
6206;DHT22;3136;48.788;9.772;2024-02-28T06:19:38;5.90;1.00
6206;DHT22;3136;48.788;9.772;2024-02-28T06:22:04;5.90;1.00
6206;DHT22;3136;48.788;9.772;2024-02-28T06:24:30;5.90;99.90
6206;DHT22;3136;48.788;9.772;2024-02-28T06:26:55;5.90;45.60
6206;DHT22;3136;48.788;9.772;2024-02-28T06:29:21;5.90;1.00
6206;DHT22;3136;48.788;9.772;2024-02-28T06:31:51;5.90;1.00
6206;DHT22;3136;48.788;9.772;2024-02-28T06:34:17;5.90;99.90
6206;DHT22;3136;48.788;9.772;2024-02-28T06:36:44;5.90;1.00
6206;DHT22;3136;48.788;9.772;2024-02-28T06:39:09;5.90;1.00
6206;DHT22;3136;48.788;9.772;2024-02-28T06:41:35;6.00;99.90
6206;DHT22;3136;48.788;9.772;2024-02-28T06:44:00;5.90;99.90
6206;DHT22;3136;48.788;9.772;2024-02-28T06:46:26;5.90;99.90
6206;DHT22;3136;48.788;9.772;2024-02-28T06:48:52;5.90;99.90
6206;DHT22;3136;48.788;9.772;2024-02-28T06:51:17;5.90;99.90
6206;DHT22;3136;48.788;9.772;2024-02-28T06:53:43;6.00;55.80
6206;DHT22;3136;48.788;9.772;2024-02-28T06:56:08;6.00;1.00
6206;DHT22;3136;48.788;9.772;2024-02-28T06:58:34;6.00;1.00
6206;DHT22;3136;48.788;9.772;2024-02-28T07:01:00;6.00;99.90
6206;DHT22;3136;48.788;9.772;2024-02-28T07:03:25;6.00;99.90
6206;DHT22;3136;48.788;9.772;2024-02-28T07:05:51;6.00;99.90
6206;DHT22;3136;48.788;9.772;2024-02-28T07:08:18;6.00;99.90
6206;DHT22;3136;48.788;9.772;2024-02-28T07:10:44;6.00;99.90
6206;DHT22;3136;48.788;9.772;2024-02-28T07:13:13;6.10;49.50
6206;DHT22;3136;48.788;9.772;2024-02-28T07:15:38;6.10;1.00
6206;DHT22;3136;48.788;9.772;2024-02-28T07:18:05;6.10;1.00
6206;DHT22;3136;48.788;9.772;2024-02-28T07:23:06;6.10;1.00
6206;DHT22;3136;48.788;9.772;2024-02-28T07:25:32;6.10;1.00
6206;DHT22;3136;48.788;9.772;2024-02-28T07:27:58;6.10;1.00
6206;DHT22;3136;48.788;9.772;2024-02-28T07:30:27;6.10;1.00
6206;DHT22;3136;48.788;9.772;2024-02-28T07:32:53;6.10;99.90
6206;DHT22;3136;48.788;9.772;2024-02-28T07:35:19;6.20;99.90
6206;DHT22;3136;48.788;9.772;2024-02-28T07:37:46;6.20;99.90
6206;DHT22;3136;48.788;9.772;2024-02-28T07:40:12;6.20;99.90
6206;DHT22;3136;48.788;9.772;2024-02-28T07:42:38;6.20;99.90
6206;DHT22;3136;48.788;9.772;2024-02-28T07:45:04;6.20;99.90
6206;DHT22;3136;48.788;9.772;2024-02-28T07:47:29;6.20;54.30
6206;DHT22;3136;48.788;9.772;2024-02-28T07:49:56;6.30;6.50
6206;DHT22;3136;48.788;9.772;2024-02-28T07:52:22;6.30;1.00
6206;DHT22;3136;48.788;9.772;2024-02-28T07:54:47;6.30;1.00
6206;DHT22;3136;48.788;9.772;2024-02-28T07:57:14;6.30;1.00
6206;DHT22;3136;48.788;9.772;2024-02-28T07:59:41;6.30;1.00
6206;DHT22;3136;48.788;9.772;2024-02-28T08:02:07;6.30;1.00
6206;DHT22;3136;48.788;9.772;2024-02-28T08:04:33;6.30;1.00
6206;DHT22;3136;48.788;9.772;2024-02-28T08:06:59;6.40;1.00
6206;DHT22;3136;48.788;9.772;2024-02-28T08:09:25;6.40;1.00
6206;DHT22;3136;48.788;9.772;2024-02-28T08:11:50;6.40;1.00
6206;DHT22;3136;48.788;9.772;2024-02-28T08:14:16;6.50;1.00
6206;DHT22;3136;48.788;9.772;2024-02-28T08:16:43;6.50;1.00
6206;DHT22;3136;48.788;9.772;2024-02-28T08:19:08;6.50;1.00
6206;DHT22;3136;48.788;9.772;2024-02-28T08:21:34;6.60;1.00
6206;DHT22;3136;48.788;9.772;2024-02-28T08:23:59;6.60;1.00
6206;DHT22;3136;48.788;9.772;2024-02-28T08:26:25;6.60;99.90
6206;DHT22;3136;48.788;9.772;2024-02-28T08:28:50;6.60;99.90
6206;DHT22;3136;48.788;9.772;2024-02-28T08:31:16;6.60;99.90
6206;DHT22;3136;48.788;9.772;2024-02-28T08:33:41;6.60;99.90
6206;DHT22;3136;48.788;9.772;2024-02-28T08:36:07;6.70;99.90
6206;DHT22;3136;48.788;9.772;2024-02-28T08:38:32;6.70;99.90
6206;DHT22;3136;48.788;9.772;2024-02-28T08:41:00;6.80;99.90
6206;DHT22;3136;48.788;9.772;2024-02-28T08:43:25;6.80;99.90
6206;DHT22;3136;48.788;9.772;2024-02-28T08:45:51;6.80;99.90
6206;DHT22;3136;48.788;9.772;2024-02-28T08:48:17;6.80;90.80
6206;DHT22;3136;48.788;9.772;2024-02-28T08:50:42;6.80;96.30
6206;DHT22;3136;48.788;9.772;2024-02-28T08:53:08;6.80;99.90
6206;DHT22;3136;48.788;9.772;2024-02-28T08:55:33;6.80;99.90
6206;DHT22;3136;48.788;9.772;2024-02-28T08:57:59;6.80;99.90
6206;DHT22;3136;48.788;9.772;2024-02-28T09:00:25;6.80;99.90
6206;DHT22;3136;48.788;9.772;2024-02-28T09:02:50;6.80;99.90
6206;DHT22;3136;48.788;9.772;2024-02-28T09:05:16;6.80;99.90
6206;DHT22;3136;48.788;9.772;2024-02-28T09:07:42;6.80;99.90
6206;DHT22;3136;48.788;9.772;2024-02-28T09:10:07;6.80;99.90
6206;DHT22;3136;48.788;9.772;2024-02-28T09:12:33;6.70;99.90
6206;DHT22;3136;48.788;9.772;2024-02-28T09:14:59;6.80;99.90
6206;DHT22;3136;48.788;9.772;2024-02-28T09:17:25;6.80;99.90
6206;DHT22;3136;48.788;9.772;2024-02-28T09:19:52;6.70;99.90
6206;DHT22;3136;48.788;9.772;2024-02-28T09:22:17;6.70;99.90
6206;DHT22;3136;48.788;9.772;2024-02-28T09:24:43;6.60;99.90
6206;DHT22;3136;48.788;9.772;2024-02-28T09:27:09;6.60;99.90
6206;DHT22;3136;48.788;9.772;2024-02-28T09:29:35;6.60;99.90
6206;DHT22;3136;48.788;9.772;2024-02-28T09:32:00;6.70;99.90
6206;DHT22;3136;48.788;9.772;2024-02-28T09:34:26;6.70;99.90
6206;DHT22;3136;48.788;9.772;2024-02-28T09:36:52;6.70;99.90
6206;DHT22;3136;48.788;9.772;2024-02-28T09:39:17;6.70;99.90
6206;DHT22;3136;48.788;9.772;2024-02-28T09:41:43;6.70;99.90
6206;DHT22;3136;48.788;9.772;2024-02-28T09:44:08;6.70;99.90
6206;DHT22;3136;48.788;9.772;2024-02-28T09:46:34;6.80;99.90
6206;DHT22;3136;48.788;9.772;2024-02-28T09:49:04;6.80;99.90
6206;DHT22;3136;48.788;9.772;2024-02-28T09:51:34;6.90;99.90
6206;DHT22;3136;48.788;9.772;2024-02-28T09:54:03;6.90;99.90
6206;DHT22;3136;48.788;9.772;2024-02-28T09:56:30;6.90;55.50
6206;DHT22;3136;48.788;9.772;2024-02-28T09:58:56;7.00;51.60
6206;DHT22;3136;48.788;9.772;2024-02-28T10:01:22;7.00;1.00
6206;DHT22;3136;48.788;9.772;2024-02-28T10:03:52;7.00;1.00
6206;DHT22;3136;48.788;9.772;2024-02-28T10:06:18;6.90;1.00
6206;DHT22;3136;48.788;9.772;2024-02-28T10:08:44;6.90;1.00
6206;DHT22;3136;48.788;9.772;2024-02-28T10:11:17;6.90;1.00
6206;DHT22;3136;48.788;9.772;2024-02-28T10:13:43;6.90;1.00
6206;DHT22;3136;48.788;9.772;2024-02-28T10:16:09;6.90;32.70
6206;DHT22;3136;48.788;9.772;2024-02-28T10:18:34;7.00;43.60
6206;DHT22;3136;48.788;9.772;2024-02-28T10:21:00;7.00;1.00
6206;DHT22;3136;48.788;9.772;2024-02-28T10:23:26;7.10;1.00
6206;DHT22;3136;48.788;9.772;2024-02-28T10:25:52;7.10;1.00
6206;DHT22;3136;48.788;9.772;2024-02-28T10:28:18;7.10;1.00
6206;DHT22;3136;48.788;9.772;2024-02-28T10:30:44;7.10;1.00
6206;DHT22;3136;48.788;9.772;2024-02-28T10:33:14;7.10;1.00
6206;DHT22;3136;48.788;9.772;2024-02-28T10:35:43;7.10;1.00
6206;DHT22;3136;48.788;9.772;2024-02-28T10:38:13;7.10;1.00
6206;DHT22;3136;48.788;9.772;2024-02-28T10:40:42;7.20;1.00
6206;DHT22;3136;48.788;9.772;2024-02-28T10:43:10;7.20;1.00
6206;DHT22;3136;48.788;9.772;2024-02-28T10:45:37;7.30;1.00
6206;DHT22;3136;48.788;9.772;2024-02-28T10:48:06;7.30;1.00
6206;DHT22;3136;48.788;9.772;2024-02-28T10:50:33;7.40;1.00
6206;DHT22;3136;48.788;9.772;2024-02-28T10:53:02;7.40;1.00
6206;DHT22;3136;48.788;9.772;2024-02-28T10:55:39;7.40;1.00
6206;DHT22;3136;48.788;9.772;2024-02-28T10:58:09;7.60;1.00
6206;DHT22;3136;48.788;9.772;2024-02-28T11:00:42;7.60;99.90
6206;DHT22;3136;48.788;9.772;2024-02-28T11:03:16;7.60;1.00
6206;DHT22;3136;48.788;9.772;2024-02-28T11:05:43;7.60;1.00
6206;DHT22;3136;48.788;9.772;2024-02-28T11:08:22;7.70;1.00
6206;DHT22;3136;48.788;9.772;2024-02-28T11:10:54;7.70;1.00
6206;DHT22;3136;48.788;9.772;2024-02-28T11:13:24;7.80;99.90
6206;DHT22;3136;48.788;9.772;2024-02-28T11:15:50;7.90;99.90
6206;DHT22;3136;48.788;9.772;2024-02-28T11:18:16;7.90;99.90
6206;DHT22;3136;48.788;9.772;2024-02-28T11:20:41;7.90;99.90
6206;DHT22;3136;48.788;9.772;2024-02-28T11:23:09;8.00;99.90
6206;DHT22;3136;48.788;9.772;2024-02-28T11:25:35;8.10;99.90
6206;DHT22;3136;48.788;9.772;2024-02-28T11:28:01;8.20;99.90
6206;DHT22;3136;48.788;9.772;2024-02-28T11:30:27;8.30;99.90
6206;DHT22;3136;48.788;9.772;2024-02-28T11:32:53;8.50;99.90
6206;DHT22;3136;48.788;9.772;2024-02-28T11:35:19;8.70;99.90
6206;DHT22;3136;48.788;9.772;2024-02-28T11:37:45;8.80;99.90
6206;DHT22;3136;48.788;9.772;2024-02-28T11:40:14;8.90;99.90
6206;DHT22;3136;48.788;9.772;2024-02-28T11:42:40;8.90;99.90
6206;DHT22;3136;48.788;9.772;2024-02-28T11:45:09;8.70;99.90
6206;DHT22;3136;48.788;9.772;2024-02-28T11:47:35;8.80;99.90
6206;DHT22;3136;48.788;9.772;2024-02-28T11:50:02;8.80;99.90
6206;DHT22;3136;48.788;9.772;2024-02-28T11:52:30;8.90;99.90
6206;DHT22;3136;48.788;9.772;2024-02-28T11:54:56;8.80;99.90
6206;DHT22;3136;48.788;9.772;2024-02-28T11:57:21;8.70;99.90
6206;DHT22;3136;48.788;9.772;2024-02-28T11:59:47;8.60;99.90
6206;DHT22;3136;48.788;9.772;2024-02-28T12:02:17;8.50;99.90
6206;DHT22;3136;48.788;9.772;2024-02-28T12:04:46;8.50;99.90
6206;DHT22;3136;48.788;9.772;2024-02-28T12:07:15;8.60;99.90
6206;DHT22;3136;48.788;9.772;2024-02-28T12:09:41;8.60;99.90
6206;DHT22;3136;48.788;9.772;2024-02-28T12:12:07;8.60;99.90
6206;DHT22;3136;48.788;9.772;2024-02-28T12:14:36;8.60;99.90
6206;DHT22;3136;48.788;9.772;2024-02-28T12:17:02;8.60;99.90
6206;DHT22;3136;48.788;9.772;2024-02-28T12:19:28;8.70;99.90
6206;DHT22;3136;48.788;9.772;2024-02-28T12:21:54;8.60;99.90
6206;DHT22;3136;48.788;9.772;2024-02-28T12:24:20;8.60;99.90
6206;DHT22;3136;48.788;9.772;2024-02-28T12:26:45;8.60;99.90
6206;DHT22;3136;48.788;9.772;2024-02-28T12:29:11;8.60;99.90
6206;DHT22;3136;48.788;9.772;2024-02-28T12:31:37;8.60;99.90
6206;DHT22;3136;48.788;9.772;2024-02-28T12:34:02;8.60;99.90
6206;DHT22;3136;48.788;9.772;2024-02-28T12:36:31;8.60;99.90
6206;DHT22;3136;48.788;9.772;2024-02-28T12:38:58;8.50;99.90
6206;DHT22;3136;48.788;9.772;2024-02-28T12:41:25;8.50;99.90
6206;DHT22;3136;48.788;9.772;2024-02-28T12:43:51;8.50;99.90
6206;DHT22;3136;48.788;9.772;2024-02-28T12:46:16;8.50;99.90
6206;DHT22;3136;48.788;9.772;2024-02-28T12:48:42;8.40;99.90
6206;DHT22;3136;48.788;9.772;2024-02-28T12:51:10;8.40;99.90
6206;DHT22;3136;48.788;9.772;2024-02-28T12:53:36;8.40;99.90
6206;DHT22;3136;48.788;9.772;2024-02-28T12:56:01;8.30;99.90
6206;DHT22;3136;48.788;9.772;2024-02-28T12:58:27;8.30;99.90
6206;DHT22;3136;48.788;9.772;2024-02-28T13:00:53;8.30;99.90
6206;DHT22;3136;48.788;9.772;2024-02-28T13:03:18;8.30;99.90
6206;DHT22;3136;48.788;9.772;2024-02-28T13:05:44;8.30;99.90
6206;DHT22;3136;48.788;9.772;2024-02-28T13:08:10;8.30;99.90
6206;DHT22;3136;48.788;9.772;2024-02-28T13:10:36;8.30;99.90
6206;DHT22;3136;48.788;9.772;2024-02-28T13:13:06;8.20;99.90
6206;DHT22;3136;48.788;9.772;2024-02-28T13:15:32;8.10;99.90
6206;DHT22;3136;48.788;9.772;2024-02-28T13:17:58;8.10;99.90
6206;DHT22;3136;48.788;9.772;2024-02-28T13:20:23;8.20;99.90
6206;DHT22;3136;48.788;9.772;2024-02-28T13:22:50;8.10;99.90
6206;DHT22;3136;48.788;9.772;2024-02-28T13:25:16;8.20;99.90
6206;DHT22;3136;48.788;9.772;2024-02-28T13:27:45;8.20;99.90
6206;DHT22;3136;48.788;9.772;2024-02-28T13:30:11;8.20;99.90
6206;DHT22;3136;48.788;9.772;2024-02-28T13:32:36;8.20;99.90
6206;DHT22;3136;48.788;9.772;2024-02-28T13:35:02;8.20;99.90
6206;DHT22;3136;48.788;9.772;2024-02-28T13:37:28;8.20;99.90
6206;DHT22;3136;48.788;9.772;2024-02-28T13:39:54;8.20;99.90
6206;DHT22;3136;48.788;9.772;2024-02-28T13:42:19;8.20;99.90
6206;DHT22;3136;48.788;9.772;2024-02-28T13:44:46;8.30;99.90
6206;DHT22;3136;48.788;9.772;2024-02-28T13:47:12;8.30;99.90
6206;DHT22;3136;48.788;9.772;2024-02-28T13:49:39;8.30;99.90
6206;DHT22;3136;48.788;9.772;2024-02-28T13:52:05;8.20;99.90
6206;DHT22;3136;48.788;9.772;2024-02-28T13:54:30;8.20;99.90
6206;DHT22;3136;48.788;9.772;2024-02-28T13:56:56;8.10;99.90
6206;DHT22;3136;48.788;9.772;2024-02-28T13:59:22;8.00;99.90
6206;DHT22;3136;48.788;9.772;2024-02-28T14:01:49;8.00;99.90
6206;DHT22;3136;48.788;9.772;2024-02-28T14:04:15;8.10;99.90
6206;DHT22;3136;48.788;9.772;2024-02-28T14:06:40;8.10;99.90
6206;DHT22;3136;48.788;9.772;2024-02-28T14:09:08;8.10;99.90
6206;DHT22;3136;48.788;9.772;2024-02-28T14:11:34;8.10;99.90
6206;DHT22;3136;48.788;9.772;2024-02-28T14:14:00;8.20;99.90
6206;DHT22;3136;48.788;9.772;2024-02-28T14:16:26;8.20;99.90
6206;DHT22;3136;48.788;9.772;2024-02-28T14:18:51;8.30;99.90
6206;DHT22;3136;48.788;9.772;2024-02-28T14:21:18;8.40;99.90
6206;DHT22;3136;48.788;9.772;2024-02-28T14:23:44;8.50;99.90
6206;DHT22;3136;48.788;9.772;2024-02-28T14:26:11;8.30;99.90
6206;DHT22;3136;48.788;9.772;2024-02-28T14:28:36;8.30;99.90
6206;DHT22;3136;48.788;9.772;2024-02-28T14:31:02;8.30;99.90
6206;DHT22;3136;48.788;9.772;2024-02-28T14:33:28;8.30;99.90
6206;DHT22;3136;48.788;9.772;2024-02-28T14:35:54;8.20;99.90
6206;DHT22;3136;48.788;9.772;2024-02-28T14:38:19;8.20;99.90
6206;DHT22;3136;48.788;9.772;2024-02-28T14:40:45;8.20;99.90
6206;DHT22;3136;48.788;9.772;2024-02-28T14:43:11;8.20;99.90
6206;DHT22;3136;48.788;9.772;2024-02-28T14:45:36;8.10;99.90
6206;DHT22;3136;48.788;9.772;2024-02-28T14:48:02;8.10;99.90
6206;DHT22;3136;48.788;9.772;2024-02-28T14:50:27;8.10;99.90
6206;DHT22;3136;48.788;9.772;2024-02-28T14:52:53;8.00;99.90
6206;DHT22;3136;48.788;9.772;2024-02-28T14:55:18;8.10;99.90
6206;DHT22;3136;48.788;9.772;2024-02-28T14:57:44;8.00;99.90
6206;DHT22;3136;48.788;9.772;2024-02-28T15:00:10;8.00;99.90
6206;DHT22;3136;48.788;9.772;2024-02-28T15:02:42;8.00;99.90
6206;DHT22;3136;48.788;9.772;2024-02-28T15:05:08;8.00;99.90
6206;DHT22;3136;48.788;9.772;2024-02-28T15:07:35;8.00;99.90
6206;DHT22;3136;48.788;9.772;2024-02-28T15:10:05;8.00;99.90
6206;DHT22;3136;48.788;9.772;2024-02-28T15:12:31;8.00;99.90
6206;DHT22;3136;48.788;9.772;2024-02-28T15:15:02;8.00;99.90
6206;DHT22;3136;48.788;9.772;2024-02-28T15:17:28;8.00;99.90
6206;DHT22;3136;48.788;9.772;2024-02-28T15:19:54;8.00;99.90
6206;DHT22;3136;48.788;9.772;2024-02-28T15:22:19;7.90;99.90
6206;DHT22;3136;48.788;9.772;2024-02-28T15:24:45;7.90;99.90
6206;DHT22;3136;48.788;9.772;2024-02-28T15:27:12;7.90;99.90
6206;DHT22;3136;48.788;9.772;2024-02-28T15:29:37;7.90;99.90
6206;DHT22;3136;48.788;9.772;2024-02-28T15:32:03;7.90;99.90
6206;DHT22;3136;48.788;9.772;2024-02-28T15:34:29;7.90;99.90
6206;DHT22;3136;48.788;9.772;2024-02-28T15:36:54;7.90;99.90
6206;DHT22;3136;48.788;9.772;2024-02-28T15:39:20;7.90;99.90
6206;DHT22;3136;48.788;9.772;2024-02-28T15:41:45;7.90;99.90
6206;DHT22;3136;48.788;9.772;2024-02-28T15:44:11;7.90;99.90
6206;DHT22;3136;48.788;9.772;2024-02-28T15:46:37;7.90;99.90
6206;DHT22;3136;48.788;9.772;2024-02-28T15:49:05;7.80;99.90
6206;DHT22;3136;48.788;9.772;2024-02-28T15:51:34;7.80;99.90
6206;DHT22;3136;48.788;9.772;2024-02-28T15:53:59;7.80;99.90
6206;DHT22;3136;48.788;9.772;2024-02-28T15:56:25;7.70;99.90
6206;DHT22;3136;48.788;9.772;2024-02-28T15:58:51;7.70;99.90
6206;DHT22;3136;48.788;9.772;2024-02-28T16:01:16;7.70;99.90
6206;DHT22;3136;48.788;9.772;2024-02-28T16:03:42;7.70;99.90
6206;DHT22;3136;48.788;9.772;2024-02-28T16:06:08;7.60;99.90
6206;DHT22;3136;48.788;9.772;2024-02-28T16:08:40;7.60;99.90
6206;DHT22;3136;48.788;9.772;2024-02-28T16:11:10;7.60;99.90
6206;DHT22;3136;48.788;9.772;2024-02-28T16:13:35;7.60;99.90
6206;DHT22;3136;48.788;9.772;2024-02-28T16:16:03;7.60;99.90
6206;DHT22;3136;48.788;9.772;2024-02-28T16:18:28;7.50;99.90